createdAt,value
2024-04-30T00:01:58.789Z,99057.98
2024-04-30T00:04:26.736Z,99061.72
2024-04-30T00:06:55.234Z,99063.10
2024-04-30T00:09:23.165Z,99059.96
2024-04-30T00:11:51.130Z,99054.83
2024-04-30T00:14:19.059Z,99055.83
2024-04-30T00:16:46.903Z,99059.55
2024-04-30T00:19:14.965Z,99058.80
2024-04-30T00:21:43.392Z,99061.34
2024-04-30T00:24:12.428Z,99060.98
2024-04-30T00:26:40.463Z,99063.73
2024-04-30T00:29:08.393Z,99063.14
2024-04-30T00:31:40.402Z,99061.08
2024-04-30T00:34:08.299Z,99060.14
2024-04-30T00:36:39.828Z,99057.90
2024-04-30T00:39:09.378Z,99059.54
2024-04-30T00:41:37.265Z,99059.49
2024-04-30T00:44:05.518Z,99060.59
2024-04-30T00:46:36.089Z,99063.80
2024-04-30T00:49:04.471Z,99062.59
2024-04-30T00:51:32.770Z,99062.95
2024-04-30T00:54:00.667Z,99060.67
2024-04-30T00:56:28.601Z,99065.21
2024-04-30T00:58:56.609Z,99065.08
2024-04-30T01:01:24.639Z,99062.16
2024-04-30T01:03:52.554Z,99057.64
2024-04-30T01:06:20.562Z,99057.34
2024-04-30T01:08:48.480Z,99054.36
2024-04-30T01:11:16.423Z,99052.32
2024-04-30T01:13:44.357Z,99054.09
2024-04-30T01:16:12.412Z,99049.92
2024-04-30T01:18:40.278Z,99047.48
2024-04-30T01:21:08.360Z,99044.61
2024-04-30T01:23:36.264Z,99049.55
2024-04-30T01:26:04.354Z,99046.01
2024-04-30T01:28:32.501Z,99045.52
2024-04-30T01:31:00.441Z,99044.40
2024-04-30T01:33:28.582Z,99042.15
2024-04-30T01:35:56.463Z,99043.90
2024-04-30T01:38:24.376Z,99044.02
2024-04-30T01:40:52.285Z,99038.56
2024-04-30T01:43:20.357Z,99035.06
2024-04-30T01:45:48.307Z,99034.34
2024-04-30T01:48:16.381Z,99028.91
2024-04-30T01:50:44.379Z,99025.04
2024-04-30T01:53:12.303Z,99022.44
2024-04-30T01:55:40.292Z,99024.48
2024-04-30T01:58:08.836Z,99027.65
2024-04-30T02:00:36.761Z,99024.79
2024-04-30T02:03:06.735Z,99019.42
2024-04-30T02:05:34.999Z,99023.12
2024-04-30T02:08:03.009Z,99020.21
2024-04-30T02:10:30.954Z,99014.41
2024-04-30T02:12:58.968Z,99015.10
2024-04-30T02:15:26.825Z,99013.73
2024-04-30T02:17:54.904Z,99011.88
2024-04-30T02:20:23.050Z,99009.91
2024-04-30T02:22:51.022Z,99014.08
2024-04-30T02:25:19.058Z,99010.40
2024-04-30T02:27:46.913Z,99006.48
2024-04-30T02:30:33.467Z,99003.30
2024-04-30T02:33:19.717Z,99002.28
2024-04-30T02:35:47.636Z,99000.78
2024-04-30T02:38:15.453Z,99002.85
2024-04-30T02:40:43.475Z,99007.37
2024-04-30T02:43:11.389Z,99007.61
2024-04-30T02:45:39.295Z,99010.86
2024-04-30T02:48:07.377Z,99013.45
2024-04-30T02:50:35.374Z,99012.91
2024-04-30T02:53:03.315Z,99015.94
2024-04-30T02:55:35.797Z,99013.38
2024-04-30T02:58:04.091Z,99014.02
2024-04-30T03:00:32.074Z,99011.21
2024-04-30T03:02:59.960Z,99007.92
2024-04-30T03:05:27.841Z,99011.48
2024-04-30T03:07:55.734Z,99011.16
2024-04-30T03:10:23.698Z,99011.14
2024-04-30T03:12:51.784Z,99014.02
2024-04-30T03:15:19.783Z,99013.98
2024-04-30T03:17:48.022Z,99013.53
2024-04-30T03:20:17.590Z,99015.33
2024-04-30T03:22:49.019Z,99013.80
2024-04-30T03:25:16.935Z,99014.08
2024-04-30T03:27:44.869Z,99021.48
2024-04-30T03:30:12.975Z,99022.52
2024-04-30T03:32:42.284Z,99023.02
2024-04-30T03:35:10.389Z,99021.64
2024-04-30T03:37:38.550Z,99028.08
2024-04-30T03:40:07.519Z,99027.30
2024-04-30T03:42:37.431Z,99025.02
2024-04-30T03:45:05.815Z,99024.58
2024-04-30T03:47:34.001Z,99028.94
2024-04-30T03:50:02.565Z,99031.16
2024-04-30T03:52:30.929Z,99030.48
2024-04-30T03:54:59.223Z,99031.45
2024-04-30T03:57:27.297Z,99036.58
2024-04-30T03:59:55.205Z,99038.52
2024-04-30T04:02:23.260Z,99041.73
2024-04-30T04:04:51.307Z,99043.45
2024-04-30T04:07:19.396Z,99045.58
2024-04-30T04:09:49.340Z,99046.45
2024-04-30T04:12:35.817Z,99054.45
2024-04-30T04:15:04.066Z,99060.80
2024-04-30T04:17:31.982Z,99061.94
2024-04-30T04:19:59.933Z,99061.48
2024-04-30T04:22:27.858Z,99059.04
2024-04-30T04:24:56.070Z,99059.45
2024-04-30T04:27:24.418Z,99059.02
2024-04-30T04:29:52.269Z,99059.33
2024-04-30T04:32:20.173Z,99056.86
2024-04-30T04:34:48.217Z,99056.39
2024-04-30T04:37:16.173Z,99052.70
2024-04-30T04:39:44.031Z,99052.28
2024-04-30T04:42:11.944Z,99055.05
2024-04-30T04:44:39.846Z,99054.34
2024-04-30T04:47:07.705Z,99054.44
2024-04-30T04:49:35.586Z,99048.27
2024-04-30T04:52:03.773Z,99049.50
2024-04-30T04:54:31.720Z,99045.32
2024-04-30T04:56:59.792Z,99045.17
2024-04-30T04:59:27.803Z,99043.70
2024-04-30T05:01:55.721Z,99043.70
2024-04-30T05:04:23.797Z,99048.48
2024-04-30T05:06:53.357Z,99044.77
2024-04-30T05:09:28.354Z,99045.60
2024-04-30T05:11:56.456Z,99041.70
2024-04-30T05:14:24.325Z,99045.29
2024-04-30T05:16:52.471Z,99046.11
2024-04-30T05:19:20.571Z,99053.05
2024-04-30T05:21:48.580Z,99051.15
2024-04-30T05:24:16.394Z,99050.45
2024-04-30T05:26:44.219Z,99054.73
2024-04-30T05:29:12.178Z,99057.67
2024-04-30T05:31:40.073Z,99059.41
2024-04-30T05:34:08.074Z,99057.30
2024-04-30T05:36:35.937Z,99061.80
2024-04-30T05:39:04.057Z,99059.95
2024-04-30T05:41:32.003Z,99061.77
2024-04-30T05:43:59.832Z,99057.58
2024-04-30T05:46:27.898Z,99054.83
2024-04-30T05:48:57.075Z,99052.98
2024-04-30T05:51:24.957Z,99050.10
2024-04-30T05:53:55.848Z,99055.67
2024-04-30T05:56:24.222Z,99050.70
2024-04-30T05:58:52.124Z,99046.16
2024-04-30T06:01:20.145Z,99046.45
2024-04-30T06:03:48.370Z,99042.45
2024-04-30T06:06:16.717Z,99042.38
2024-04-30T06:08:44.708Z,99044.29
2024-04-30T06:11:12.656Z,99047.23
2024-04-30T06:13:41.151Z,99044.01
2024-04-30T06:16:09.244Z,99042.76
2024-04-30T06:18:37.401Z,99042.44
2024-04-30T06:21:05.581Z,99035.39
2024-04-30T06:23:34.468Z,99040.51
2024-04-30T06:26:04.286Z,99040.64
2024-04-30T06:28:34.768Z,99038.66
2024-04-30T06:31:03.145Z,99031.73
2024-04-30T06:33:31.435Z,99029.48
2024-04-30T06:35:59.509Z,99031.06
2024-04-30T06:38:29.412Z,99029.46
2024-04-30T06:40:57.409Z,99022.42
2024-04-30T06:43:25.280Z,99028.55
2024-04-30T06:45:53.302Z,99024.56
2024-04-30T06:48:21.238Z,99025.56
2024-04-30T06:50:49.335Z,99028.52
2024-04-30T06:53:17.191Z,99024.73
2024-04-30T06:55:45.093Z,99025.94
2024-04-30T06:58:13.163Z,99025.41
2024-04-30T07:00:42.109Z,99032.75
2024-04-30T07:03:11.104Z,99028.92
2024-04-30T07:05:39.422Z,99026.96
2024-04-30T07:08:08.079Z,99024.17
2024-04-30T07:10:36.006Z,99026.67
2024-04-30T07:13:04.235Z,99020.76
2024-04-30T07:15:32.208Z,99021.42
2024-04-30T07:18:00.279Z,99016.64
2024-04-30T07:20:28.273Z,99020.36
2024-04-30T07:22:56.275Z,99015.72
2024-04-30T07:25:24.216Z,99017.55
2024-04-30T07:27:52.232Z,99016.30
2024-04-30T07:30:20.378Z,99013.38
2024-04-30T07:32:48.659Z,99013.45
2024-04-30T07:35:16.734Z,99013.52
2024-04-30T07:37:44.646Z,99014.06
2024-04-30T07:40:13.148Z,99011.60
2024-04-30T07:42:41.044Z,99010.48
2024-04-30T07:45:09.069Z,99010.48
2024-04-30T07:47:37.179Z,99013.44
2024-04-30T07:50:05.089Z,99016.98
2024-04-30T07:52:33.157Z,99016.58
2024-04-30T07:55:01.186Z,99015.15
2024-04-30T07:57:29.163Z,99014.39
2024-04-30T07:59:57.302Z,99012.49
2024-04-30T08:02:25.352Z,99010.50
2024-04-30T08:04:53.361Z,99006.75
2024-04-30T08:07:21.285Z,99011.45
2024-04-30T08:09:50.374Z,99010.16
2024-04-30T08:12:18.326Z,99011.02
2024-04-30T08:14:46.275Z,99011.28
2024-04-30T08:17:14.067Z,99013.80
2024-04-30T08:19:42.141Z,99013.56
2024-04-30T08:22:10.162Z,99014.14
2024-04-30T08:24:38.169Z,99017.34
2024-04-30T08:27:06.128Z,99014.47
2024-04-30T08:29:33.923Z,99009.44
2024-04-30T08:32:02.316Z,99012.66
2024-04-30T08:34:30.304Z,99008.66
2024-04-30T08:36:58.128Z,99008.81
2024-04-30T08:39:26.064Z,99011.32
2024-04-30T08:41:56.321Z,98995.68
2024-04-30T08:44:24.910Z,98993.29
2024-04-30T08:46:54.734Z,98993.06
2024-04-30T08:49:33.678Z,98993.93
2024-04-30T08:52:09.861Z,98989.06
2024-04-30T08:54:41.402Z,98982.83
2024-04-30T08:57:09.397Z,98981.21
2024-04-30T08:59:38.682Z,98983.36
2024-04-30T09:02:08.140Z,98981.86
2024-04-30T09:04:39.978Z,98980.70
2024-04-30T09:07:08.103Z,98968.60
2024-04-30T09:09:36.110Z,98970.86
2024-04-30T09:12:04.464Z,98966.90
2024-04-30T09:14:43.070Z,98968.42
2024-04-30T09:17:11.343Z,98955.36
2024-04-30T09:19:39.468Z,98953.01
2024-04-30T09:22:07.760Z,98958.95
2024-04-30T09:24:46.785Z,98950.45
2024-04-30T09:27:15.076Z,98948.36
2024-04-30T09:29:44.749Z,98942.79
2024-04-30T09:32:22.446Z,98943.54
2024-04-30T09:34:51.163Z,98938.48
2024-04-30T09:37:23.068Z,98937.21
2024-04-30T09:39:53.881Z,98932.84
2024-04-30T09:42:26.967Z,98925.19
2024-04-30T09:44:55.741Z,98931.95
2024-04-30T09:47:25.108Z,98927.73
2024-04-30T09:49:55.395Z,98918.31
2024-04-30T09:52:25.419Z,98914.99
2024-04-30T09:54:56.044Z,98914.13
2024-04-30T09:57:25.561Z,98912.88
2024-04-30T09:59:53.514Z,98909.48
2024-04-30T10:02:23.020Z,98904.34
2024-04-30T10:04:53.445Z,98893.47
2024-04-30T10:07:22.662Z,98899.45
2024-04-30T10:09:54.486Z,98897.98
2024-04-30T10:12:24.040Z,98887.46
2024-04-30T10:14:52.990Z,98885.29
2024-04-30T10:17:20.976Z,98879.90
2024-04-30T10:19:49.062Z,98877.50
2024-04-30T10:22:18.109Z,98879.28
2024-04-30T10:24:46.146Z,98879.25
2024-04-30T10:27:25.287Z,98871.18
2024-04-30T10:29:53.203Z,98867.11
2024-04-30T10:32:21.252Z,98863.61
2024-04-30T10:34:58.732Z,98860.90
2024-04-30T10:37:31.309Z,98859.72
2024-04-30T10:40:19.027Z,98855.64
2024-04-30T10:42:46.890Z,98848.89
2024-04-30T10:45:25.069Z,98841.69
2024-04-30T10:47:53.295Z,98845.70
2024-04-30T10:50:21.801Z,98839.74
2024-04-30T10:52:49.927Z,98848.20
2024-04-30T10:55:21.237Z,98846.48
2024-04-30T10:57:49.259Z,98836.92
2024-04-30T11:00:17.518Z,98830.85
2024-04-30T11:02:50.356Z,98830.25
2024-04-30T11:05:23.824Z,98831.55
2024-04-30T11:07:59.429Z,98832.93
2024-04-30T11:10:33.728Z,98831.65
2024-04-30T11:13:08.200Z,98828.91
2024-04-30T11:15:59.408Z,98828.13
2024-04-30T11:18:32.242Z,98832.31
2024-04-30T11:21:00.172Z,98828.71
2024-04-30T11:23:28.031Z,98823.98
2024-04-30T11:25:56.107Z,98820.45
2024-04-30T11:28:23.924Z,98817.80
2024-04-30T11:30:51.734Z,98819.15
2024-04-30T11:33:19.874Z,98812.41
2024-04-30T11:35:47.803Z,98802.36
2024-04-30T11:38:15.661Z,98801.20
2024-04-30T11:40:43.643Z,98799.34
2024-04-30T11:43:11.515Z,98801.20
2024-04-30T11:45:39.385Z,98801.38
2024-04-30T11:48:07.773Z,98791.77
2024-04-30T11:50:35.708Z,98789.63
2024-04-30T11:53:03.935Z,98783.50
2024-04-30T11:55:32.010Z,98770.76
2024-04-30T11:58:02.727Z,98771.33
2024-04-30T12:00:30.591Z,98771.96
2024-04-30T12:02:58.571Z,98764.64
2024-04-30T12:05:26.582Z,98761.21
2024-04-30T12:07:54.605Z,98766.06
2024-04-30T12:10:23.696Z,98759.38
2024-04-30T12:12:52.046Z,98752.92
2024-04-30T12:15:20.058Z,98747.38
2024-04-30T12:17:48.251Z,98750.63
2024-04-30T12:20:16.219Z,98751.45
2024-04-30T12:22:44.711Z,98750.73
2024-04-30T12:25:12.958Z,98751.73
2024-04-30T12:27:40.914Z,98750.59
2024-04-30T12:30:09.055Z,98745.09
2024-04-30T12:32:36.866Z,98738.74
2024-04-30T12:35:05.094Z,98737.44
2024-04-30T12:37:33.010Z,98727.06
2024-04-30T12:40:02.879Z,98724.91
2024-04-30T12:42:32.143Z,98725.58
2024-04-30T12:45:00.006Z,98730.77
2024-04-30T12:47:28.281Z,98723.48
2024-04-30T12:49:56.159Z,98713.69
2024-04-30T12:52:24.163Z,98706.80
2024-04-30T12:54:52.207Z,98708.17
2024-04-30T12:57:20.124Z,98706.19
2024-04-30T12:59:48.105Z,98702.70
2024-04-30T13:02:16.037Z,98704.31
2024-04-30T13:04:43.899Z,98698.23
2024-04-30T13:07:11.930Z,98690.27
2024-04-30T13:09:42.240Z,98692.90
2024-04-30T13:12:10.502Z,98694.38
2024-04-30T13:14:38.292Z,98692.80
2024-04-30T13:17:06.106Z,98686.50
2024-04-30T13:19:34.077Z,98680.13
2024-04-30T13:22:02.190Z,98677.16
2024-04-30T13:24:30.187Z,98672.08
2024-04-30T13:26:58.077Z,98669.00
2024-04-30T13:29:26.187Z,98668.73
2024-04-30T13:31:55.750Z,98664.66
2024-04-30T13:34:23.648Z,98667.02
2024-04-30T13:36:51.552Z,98664.42
2024-04-30T13:39:20.168Z,98659.29
2024-04-30T13:41:49.075Z,98657.15
2024-04-30T13:44:16.948Z,98656.01
2024-04-30T13:46:45.010Z,98658.80
2024-04-30T13:49:13.066Z,98654.72
2024-04-30T13:51:40.957Z,98646.07
2024-04-30T13:54:09.417Z,98639.98
2024-04-30T13:56:37.324Z,98637.92
2024-04-30T13:59:08.331Z,98636.77
2024-04-30T14:01:37.221Z,98638.10
2024-04-30T14:04:05.395Z,98635.40
2024-04-30T14:06:33.362Z,98638.51
2024-04-30T14:09:01.386Z,98632.08
2024-04-30T14:11:29.367Z,98629.46
2024-04-30T14:13:57.279Z,98626.48
2024-04-30T14:16:25.212Z,98620.30
2024-04-30T14:18:53.888Z,98615.55
2024-04-30T14:21:21.716Z,98613.06
2024-04-30T14:23:49.498Z,98607.65
2024-04-30T14:26:18.344Z,98611.53
2024-04-30T14:28:46.346Z,98610.25
2024-04-30T14:31:17.350Z,98605.19
2024-04-30T14:33:46.896Z,98600.34
2024-04-30T14:36:37.036Z,98600.12
2024-04-30T14:39:07.404Z,98603.16
2024-04-30T14:41:36.267Z,98604.23
2024-04-30T14:44:04.497Z,98599.31
2024-04-30T14:46:33.462Z,98597.90
2024-04-30T14:49:01.790Z,98595.67
2024-04-30T14:51:38.011Z,98589.44
2024-04-30T14:54:06.575Z,98589.64
2024-04-30T14:56:34.871Z,98587.72
2024-04-30T14:59:03.376Z,98586.42
2024-04-30T15:01:31.334Z,98588.48
2024-04-30T15:03:59.629Z,98587.05
2024-04-30T15:06:29.351Z,98589.30
2024-04-30T15:08:57.344Z,98584.48
2024-04-30T15:11:25.899Z,98581.70
2024-04-30T15:13:54.123Z,98577.95
2024-04-30T15:16:21.946Z,98578.91
2024-04-30T15:18:49.831Z,98578.76
2024-04-30T15:21:17.757Z,98574.99
2024-04-30T15:23:45.778Z,98574.90
2024-04-30T15:26:15.333Z,98576.10
2024-04-30T15:28:43.700Z,98575.85
2024-04-30T15:31:18.663Z,98569.02
2024-04-30T15:33:47.672Z,98568.41
2024-04-30T15:36:15.923Z,98565.88
2024-04-30T15:38:46.228Z,98565.13
2024-04-30T15:41:23.640Z,98561.69
2024-04-30T15:43:51.860Z,98557.96
2024-04-30T15:46:20.137Z,98554.29
2024-04-30T15:48:50.825Z,98549.13
2024-04-30T15:51:19.401Z,98550.43
2024-04-30T15:53:47.277Z,98550.77
2024-04-30T15:56:17.830Z,98543.67
2024-04-30T15:58:48.212Z,98542.23
2024-04-30T16:01:16.604Z,98542.66
2024-04-30T16:03:44.972Z,98541.23
2024-04-30T16:06:14.416Z,98540.39
2024-04-30T16:08:42.413Z,98539.09
2024-04-30T16:11:11.730Z,98532.17
2024-04-30T16:13:41.554Z,98529.31
2024-04-30T16:16:16.413Z,98530.52
2024-04-30T16:22:09.060Z,98524.64
2024-04-30T16:24:42.742Z,98524.63
2024-04-30T16:27:11.554Z,98518.55
2024-04-30T16:29:39.518Z,98519.23
2024-04-30T16:32:08.372Z,98521.56
2024-04-30T16:34:36.243Z,98518.89
2024-04-30T16:37:04.389Z,98521.09
2024-04-30T16:39:32.588Z,98519.83
2024-04-30T16:42:00.572Z,98517.30
2024-04-30T16:44:36.937Z,98516.72
2024-04-30T16:47:12.481Z,98518.55
2024-04-30T16:49:40.494Z,98515.36
2024-04-30T16:52:08.351Z,98509.52
2024-04-30T16:54:36.190Z,98507.77
2024-04-30T16:57:04.304Z,98513.23
2024-04-30T16:59:32.504Z,98508.39
2024-04-30T17:02:00.342Z,98508.98
2024-04-30T17:04:28.282Z,98508.17
2024-04-30T17:06:56.142Z,98512.73
2024-04-30T17:09:24.072Z,98511.85
2024-04-30T17:11:51.965Z,98514.09
2024-04-30T17:14:19.820Z,98510.90
2024-04-30T17:16:47.674Z,98507.54
2024-04-30T17:19:15.463Z,98509.98
2024-04-30T17:21:44.466Z,98503.52
2024-04-30T17:24:13.530Z,98509.58
2024-04-30T17:26:47.945Z,98510.66
2024-04-30T17:29:16.735Z,98509.12
2024-04-30T17:31:45.551Z,98511.05
2024-04-30T17:34:13.569Z,98514.34
2024-04-30T17:36:43.494Z,98514.85
2024-04-30T17:39:14.501Z,98512.91
2024-04-30T17:41:42.266Z,98513.98
2024-04-30T17:44:11.882Z,98512.65
2024-04-30T17:46:43.490Z,98514.86
2024-04-30T17:49:12.829Z,98518.64
2024-04-30T17:51:44.083Z,98526.11
2024-04-30T17:54:14.476Z,98523.65
2024-04-30T17:56:43.579Z,98526.59
2024-04-30T17:59:11.486Z,98531.33
2024-04-30T18:01:44.559Z,98532.71
2024-04-30T18:04:13.532Z,98533.54
2024-04-30T18:06:41.985Z,98533.56
2024-04-30T18:09:09.925Z,98535.52
2024-04-30T18:11:39.299Z,98535.76
2024-04-30T18:14:07.178Z,98539.20
2024-04-30T18:16:39.393Z,98543.15
2024-04-30T18:19:08.595Z,98547.65
2024-04-30T18:21:37.626Z,98544.55
2024-04-30T18:24:07.042Z,98552.64
2024-04-30T18:26:42.551Z,98554.23
2024-04-30T18:29:10.915Z,98560.68
2024-04-30T18:31:38.780Z,98561.39
2024-04-30T18:34:06.720Z,98565.46
2024-04-30T18:36:37.960Z,98569.02
2024-04-30T18:39:06.057Z,98569.99
2024-04-30T18:41:33.912Z,98569.44
2024-04-30T18:44:01.810Z,98571.26
2024-04-30T18:46:29.699Z,98576.30
2024-04-30T18:48:57.702Z,98576.52
2024-04-30T18:51:26.349Z,98579.30
2024-04-30T18:53:55.033Z,98577.04
2024-04-30T18:56:23.980Z,98579.29
2024-04-30T18:58:51.783Z,98583.08
2024-04-30T19:01:19.798Z,98585.83
2024-04-30T19:03:50.825Z,98589.29
2024-04-30T19:06:21.302Z,98591.48
2024-04-30T19:08:49.365Z,98591.77
2024-04-30T19:11:17.193Z,98596.41
2024-04-30T19:13:45.409Z,98599.30
2024-04-30T19:16:13.372Z,98597.61
2024-04-30T19:18:41.403Z,98599.36
2024-04-30T19:21:09.359Z,98598.74
2024-04-30T19:23:37.268Z,98602.09
2024-04-30T19:26:05.216Z,98600.84
2024-04-30T19:28:35.338Z,98598.46
2024-04-30T19:31:03.309Z,98599.69
2024-04-30T19:33:31.724Z,98603.55
2024-04-30T19:35:59.731Z,98606.72
2024-04-30T19:38:27.489Z,98605.70
2024-04-30T19:40:55.403Z,98605.09
2024-04-30T19:43:23.240Z,98606.45
2024-04-30T19:45:51.102Z,98609.42
2024-04-30T19:48:23.083Z,98609.75
2024-04-30T19:50:53.506Z,98611.34
2024-04-30T19:53:21.333Z,98617.50
2024-04-30T19:55:50.657Z,98617.61
2024-04-30T19:58:18.559Z,98616.61
2024-04-30T20:00:46.686Z,98618.86
2024-04-30T20:03:14.771Z,98620.94
2024-04-30T20:05:43.420Z,98621.31
2024-04-30T20:08:13.222Z,98623.23
2024-04-30T20:10:41.036Z,98627.65
2024-04-30T20:13:08.907Z,98627.21
2024-04-30T20:15:36.840Z,98625.59
2024-04-30T20:18:04.872Z,98625.15
2024-04-30T20:20:32.690Z,98624.87
2024-04-30T20:23:01.273Z,98633.05
2024-04-30T20:25:29.097Z,98639.04
2024-04-30T20:27:57.061Z,98637.34
2024-04-30T20:30:26.184Z,98637.55
2024-04-30T20:36:15.272Z,98640.45
2024-04-30T20:38:43.104Z,98646.02
2024-04-30T20:41:11.759Z,98644.36
2024-04-30T20:43:40.217Z,98644.33
2024-04-30T20:46:08.070Z,98647.06
2024-04-30T20:48:36.032Z,98648.84
2024-04-30T20:51:04.684Z,98651.04
2024-04-30T20:53:32.531Z,98651.11
2024-04-30T20:56:00.424Z,98655.23
2024-04-30T20:58:28.268Z,98654.77
2024-04-30T21:00:56.109Z,98652.25
2024-04-30T21:03:24.287Z,98656.74
2024-04-30T21:05:52.108Z,98657.11
2024-04-30T21:08:23.903Z,98656.83
2024-04-30T21:10:52.374Z,98658.19
2024-04-30T21:13:20.811Z,98661.69
2024-04-30T21:15:48.751Z,98660.34
2024-04-30T21:18:16.740Z,98666.48
2024-04-30T21:20:44.684Z,98666.52
2024-04-30T21:23:12.675Z,98664.65
2024-04-30T21:25:40.501Z,98666.11
2024-04-30T21:28:08.357Z,98669.00
2024-04-30T21:30:36.194Z,98666.24
2024-04-30T21:33:04.667Z,98667.98
2024-04-30T21:35:33.042Z,98665.02
2024-04-30T21:38:00.930Z,98664.64
2024-04-30T21:40:28.800Z,98667.67
2024-04-30T21:42:56.771Z,98669.70
2024-04-30T21:45:24.687Z,98672.25
2024-04-30T21:47:52.661Z,98667.24
2024-04-30T21:50:20.547Z,98667.92
2024-04-30T21:52:48.544Z,98667.20
2024-04-30T21:55:16.328Z,98668.85
2024-04-30T21:57:44.211Z,98672.15
2024-04-30T22:00:15.240Z,98667.69
2024-04-30T22:02:43.192Z,98672.85
2024-04-30T22:05:11.198Z,98667.71
2024-04-30T22:07:38.976Z,98674.23
2024-04-30T22:10:07.285Z,98667.58
2024-04-30T22:12:35.182Z,98668.13
2024-04-30T22:15:03.202Z,98666.03
2024-04-30T22:17:31.115Z,98666.41
2024-04-30T22:19:59.117Z,98664.88
2024-04-30T22:22:26.972Z,98660.75
2024-04-30T22:24:54.893Z,98659.64
2024-04-30T22:27:22.889Z,98664.11
2024-04-30T22:29:54.967Z,98659.15
2024-04-30T22:32:26.075Z,98661.86
2024-04-30T22:34:53.996Z,98664.09
2024-04-30T22:37:21.942Z,98660.89
2024-04-30T22:39:49.782Z,98659.10
2024-04-30T22:42:17.694Z,98663.91
2024-04-30T22:44:45.480Z,98662.75
2024-04-30T22:50:37.184Z,98662.90
2024-04-30T22:53:05.162Z,98660.20
2024-04-30T22:55:33.238Z,98662.00
2024-04-30T22:58:01.231Z,98656.89
2024-04-30T23:00:29.166Z,98653.35
2024-04-30T23:02:58.225Z,98656.02
2024-04-30T23:05:26.275Z,98651.69
2024-04-30T23:07:54.063Z,98651.52
2024-04-30T23:10:21.814Z,98652.25
2024-04-30T23:12:49.790Z,98646.73
2024-04-30T23:15:17.657Z,98647.48
2024-04-30T23:17:45.570Z,98647.74
2024-04-30T23:20:13.643Z,98645.66
2024-04-30T23:22:41.586Z,98642.05
2024-04-30T23:25:09.803Z,98641.08
2024-04-30T23:27:37.621Z,98638.43
2024-04-30T23:33:30.707Z,98639.46
2024-04-30T23:35:58.530Z,98636.30
2024-04-30T23:38:26.404Z,98637.77
2024-04-30T23:40:54.276Z,98636.52
2024-04-30T23:43:22.170Z,98637.86
2024-04-30T23:45:50.040Z,98637.77
2024-04-30T23:48:17.960Z,98635.56
2024-04-30T23:50:46.047Z,98636.02
2024-04-30T23:53:13.840Z,98634.21
2024-04-30T23:55:41.688Z,98635.48
2024-04-30T23:58:11.406Z,98638.80
